createdAt,value
2018-05-11T00:00:17.299Z,13.88
2018-05-11T00:01:17.265Z,13.88
2018-05-11T00:02:17.249Z,13.88
2018-05-11T00:03:17.283Z,13.88
2018-05-11T00:04:17.360Z,13.88
2018-05-11T00:05:17.312Z,13.81
2018-05-11T00:06:17.278Z,13.88
2018-05-11T00:07:17.269Z,13.88
2018-05-11T00:08:17.250Z,13.88
2018-05-11T00:09:17.215Z,13.81
2018-05-11T00:10:17.287Z,13.81
2018-05-11T00:11:17.267Z,13.88
2018-05-11T00:12:17.257Z,13.81
2018-05-11T00:13:17.354Z,13.88
2018-05-11T00:14:17.222Z,13.81
2018-05-11T00:15:17.230Z,13.81
2018-05-11T00:16:17.240Z,13.81
2018-05-11T00:17:17.238Z,13.81
2018-05-11T00:18:17.248Z,13.81
2018-05-11T00:19:17.265Z,13.75
2018-05-11T00:20:17.265Z,13.75
2018-05-11T00:21:17.276Z,13.69
2018-05-11T00:22:17.241Z,13.69
2018-05-11T00:23:17.284Z,13.75
2018-05-11T00:24:17.304Z,13.69
2018-05-11T00:25:17.250Z,13.69
2018-05-11T00:26:17.235Z,13.69
2018-05-11T00:27:17.780Z,13.69
2018-05-11T00:28:17.289Z,13.75
2018-05-11T00:29:17.242Z,13.69
2018-05-11T00:30:17.274Z,13.75
2018-05-11T00:31:17.262Z,13.75
2018-05-11T00:32:17.247Z,13.69
2018-05-11T00:33:17.239Z,13.75
2018-05-11T00:34:17.292Z,13.69
2018-05-11T00:35:17.266Z,13.75
2018-05-11T00:36:17.373Z,13.69
2018-05-11T00:37:17.693Z,13.69
2018-05-11T00:38:17.321Z,13.69
2018-05-11T00:39:17.247Z,13.75
2018-05-11T00:40:17.289Z,13.69
2018-05-11T00:41:17.294Z,13.75
2018-05-11T00:42:17.288Z,13.75
2018-05-11T00:43:17.283Z,13.69
2018-05-11T00:44:17.292Z,13.69
2018-05-11T00:45:17.293Z,13.69
2018-05-11T00:46:17.382Z,13.69
2018-05-11T00:47:17.603Z,13.69
2018-05-11T00:48:17.287Z,13.62
2018-05-11T00:49:17.278Z,13.62
2018-05-11T00:50:17.297Z,13.69
2018-05-11T00:51:17.256Z,13.62
2018-05-11T00:52:17.394Z,13.62
2018-05-11T00:53:17.291Z,13.62
2018-05-11T00:54:17.277Z,13.62
2018-05-11T00:55:17.345Z,13.69
2018-05-11T00:56:17.245Z,13.62
2018-05-11T00:57:17.278Z,13.62
2018-05-11T00:58:17.321Z,13.62
2018-05-11T00:59:17.278Z,13.62
2018-05-11T01:00:17.337Z,13.62
2018-05-11T01:01:17.272Z,13.62
2018-05-11T01:02:17.350Z,13.69
2018-05-11T01:03:17.351Z,13.62
2018-05-11T01:04:17.291Z,13.69
2018-05-11T01:05:17.311Z,13.69
2018-05-11T01:06:17.409Z,13.69
2018-05-11T01:07:17.482Z,13.69
2018-05-11T01:08:17.281Z,13.69
2018-05-11T01:09:17.364Z,13.75
2018-05-11T01:10:17.287Z,13.69
2018-05-11T01:11:17.324Z,13.69
2018-05-11T01:12:17.681Z,13.69
2018-05-11T01:13:17.344Z,13.69
2018-05-11T01:14:17.334Z,13.69
2018-05-11T01:15:17.329Z,13.62
2018-05-11T01:16:17.670Z,13.62
2018-05-11T01:17:17.299Z,13.69
2018-05-11T01:18:17.304Z,13.62
2018-05-11T01:19:17.290Z,13.69
2018-05-11T01:20:17.325Z,13.69
2018-05-11T01:21:17.317Z,13.69
2018-05-11T01:22:17.315Z,13.62
2018-05-11T01:23:17.317Z,13.69
2018-05-11T01:24:17.319Z,13.69
2018-05-11T01:25:17.284Z,13.69
2018-05-11T01:26:17.306Z,13.69
2018-05-11T01:27:17.708Z,13.69
2018-05-11T01:28:17.286Z,13.69
2018-05-11T01:29:17.292Z,13.75
2018-05-11T01:30:17.293Z,13.69
2018-05-11T01:31:17.282Z,13.69
2018-05-11T01:32:17.347Z,13.69
2018-05-11T01:33:17.297Z,13.75
2018-05-11T01:34:17.309Z,13.75
2018-05-11T01:35:17.316Z,13.69
2018-05-11T01:36:17.315Z,13.75
2018-05-11T01:37:17.311Z,13.69
2018-05-11T01:38:17.293Z,13.69
2018-05-11T01:39:17.315Z,13.75
2018-05-11T01:40:17.428Z,13.69
2018-05-11T01:41:17.313Z,13.69
2018-05-11T01:42:17.826Z,13.75
2018-05-11T01:43:17.361Z,13.75
2018-05-11T01:44:17.307Z,13.75
2018-05-11T01:45:17.290Z,13.75
2018-05-11T01:46:17.298Z,13.69
2018-05-11T01:47:17.306Z,13.69
2018-05-11T01:48:17.447Z,13.75
2018-05-11T01:49:17.353Z,13.69
2018-05-11T01:50:17.319Z,13.69
2018-05-11T01:51:17.309Z,13.69
2018-05-11T01:52:17.351Z,13.62
2018-05-11T01:53:17.286Z,13.69
2018-05-11T01:54:17.296Z,13.62
2018-05-11T01:55:17.327Z,13.69
2018-05-11T01:56:17.307Z,13.62
2018-05-11T01:57:17.316Z,13.62
2018-05-11T01:58:17.339Z,13.69
2018-05-11T01:59:17.353Z,13.62
2018-05-11T02:00:17.313Z,13.62
2018-05-11T02:01:17.325Z,13.62
2018-05-11T02:02:17.303Z,13.62
2018-05-11T02:03:17.407Z,13.62
2018-05-11T02:04:17.376Z,13.62
2018-05-11T02:05:17.291Z,13.62
2018-05-11T02:06:17.369Z,13.62
2018-05-11T02:07:17.348Z,13.62
2018-05-11T02:08:17.435Z,13.56
2018-05-11T02:09:17.342Z,13.56
2018-05-11T02:10:17.361Z,13.56
2018-05-11T02:11:17.379Z,13.56
2018-05-11T02:12:17.315Z,13.56
2018-05-11T02:13:17.316Z,13.56
2018-05-11T02:14:17.322Z,13.5
2018-05-11T02:15:17.307Z,13.5
2018-05-11T02:16:17.308Z,13.5
2018-05-11T02:17:17.308Z,13.44
2018-05-11T02:18:17.330Z,13.5
2018-05-11T02:19:17.338Z,13.5
2018-05-11T02:20:17.309Z,13.5
2018-05-11T02:21:17.327Z,13.44
2018-05-11T02:22:17.318Z,13.44
2018-05-11T02:23:17.317Z,13.44
2018-05-11T02:24:17.317Z,13.38
2018-05-11T02:25:17.311Z,13.44
2018-05-11T02:26:17.369Z,13.38
2018-05-11T02:27:17.301Z,13.44
2018-05-11T02:28:17.371Z,13.38
2018-05-11T02:29:17.328Z,13.38
2018-05-11T02:30:17.481Z,13.38
2018-05-11T02:31:17.337Z,13.38
2018-05-11T02:32:17.332Z,13.38
2018-05-11T02:33:17.383Z,13.38
2018-05-11T02:34:17.382Z,13.38
2018-05-11T02:35:17.347Z,13.38
2018-05-11T02:36:17.349Z,13.31
2018-05-11T02:37:17.338Z,13.38
2018-05-11T02:38:17.314Z,13.38
2018-05-11T02:39:17.348Z,13.38
2018-05-11T02:40:17.377Z,13.38
2018-05-11T02:41:17.451Z,13.31
2018-05-11T02:42:17.363Z,13.31
2018-05-11T02:43:17.358Z,13.31
2018-05-11T02:44:17.345Z,13.31
2018-05-11T02:45:17.340Z,13.25
2018-05-11T02:46:17.373Z,13.31
2018-05-11T02:47:17.325Z,13.31
2018-05-11T02:48:17.370Z,13.25
2018-05-11T02:49:17.329Z,13.31
2018-05-11T02:50:17.424Z,13.25
2018-05-11T02:51:17.429Z,13.25
2018-05-11T02:52:17.367Z,13.25
2018-05-11T02:53:17.450Z,13.25
2018-05-11T02:54:17.312Z,13.25
2018-05-11T02:55:17.326Z,13.25
2018-05-11T02:56:17.351Z,13.25
2018-05-11T02:57:17.369Z,13.25
2018-05-11T02:58:17.363Z,13.19
2018-05-11T02:59:17.424Z,13.19
2018-05-11T03:00:17.367Z,13.19
2018-05-11T03:01:17.448Z,13.19
2018-05-11T03:02:17.313Z,13.13
2018-05-11T03:03:17.349Z,13.06
2018-05-11T03:04:17.402Z,13.06
2018-05-11T03:05:17.328Z,13.06
2018-05-11T03:06:17.387Z,13
2018-05-11T03:07:17.422Z,13
2018-05-11T03:08:17.446Z,12.94
2018-05-11T03:09:17.347Z,13
2018-05-11T03:10:17.397Z,12.94
2018-05-11T03:11:17.393Z,12.94
2018-05-11T03:12:17.403Z,13
2018-05-11T03:13:17.452Z,13
2018-05-11T03:14:17.359Z,12.94
2018-05-11T03:15:17.358Z,12.94
2018-05-11T03:16:17.343Z,12.94
2018-05-11T03:17:17.336Z,12.94
2018-05-11T03:18:17.331Z,12.94
2018-05-11T03:19:17.361Z,12.88
2018-05-11T03:20:17.365Z,12.88
2018-05-11T03:21:17.428Z,12.88
2018-05-11T03:22:17.340Z,12.88
2018-05-11T03:23:17.345Z,12.88
2018-05-11T03:24:17.339Z,12.88
2018-05-11T03:25:17.364Z,12.88
2018-05-11T03:26:17.515Z,12.94
2018-05-11T03:27:17.543Z,12.88
2018-05-11T03:28:17.358Z,12.88
2018-05-11T03:29:17.375Z,12.88
2018-05-11T03:30:17.372Z,12.88
2018-05-11T03:31:17.397Z,12.88
2018-05-11T03:32:17.379Z,12.81
2018-05-11T03:33:17.464Z,12.81
2018-05-11T03:34:17.369Z,12.81
2018-05-11T03:35:17.331Z,12.81
2018-05-11T03:36:17.360Z,12.75
2018-05-11T03:37:17.336Z,12.75
2018-05-11T03:38:17.341Z,12.75
2018-05-11T03:39:17.389Z,12.69
2018-05-11T03:40:17.346Z,12.69
2018-05-11T03:41:17.366Z,12.69
2018-05-11T03:42:17.418Z,12.75
2018-05-11T03:43:17.380Z,12.75
2018-05-11T03:44:17.369Z,12.75
2018-05-11T03:45:17.400Z,12.75
2018-05-11T03:46:17.401Z,12.75
2018-05-11T03:47:17.357Z,12.75
2018-05-11T03:48:17.370Z,12.75
2018-05-11T03:49:17.383Z,12.75
2018-05-11T03:50:17.337Z,12.81
2018-05-11T03:51:17.373Z,12.75
2018-05-11T03:52:17.378Z,12.75
2018-05-11T03:53:17.354Z,12.69
2018-05-11T03:54:17.350Z,12.75
2018-05-11T03:55:17.401Z,12.69
2018-05-11T03:56:17.350Z,12.69
2018-05-11T03:57:17.353Z,12.69
2018-05-11T03:58:17.354Z,12.69
2018-05-11T03:59:17.364Z,12.69
2018-05-11T04:00:17.343Z,12.69
2018-05-11T04:01:17.381Z,12.69
2018-05-11T04:02:17.463Z,12.75
2018-05-11T04:03:17.410Z,12.69
2018-05-11T04:04:17.363Z,12.69
2018-05-11T04:05:17.367Z,12.69
2018-05-11T04:06:17.374Z,12.69
2018-05-11T04:07:17.381Z,12.69
2018-05-11T04:08:17.356Z,12.63
2018-05-11T04:09:17.423Z,12.69
2018-05-11T04:10:17.409Z,12.63
2018-05-11T04:11:17.356Z,12.69
2018-05-11T04:12:17.366Z,12.69
2018-05-11T04:13:18.315Z,12.69
2018-05-11T04:14:17.426Z,12.69
2018-05-11T04:15:17.390Z,12.63
2018-05-11T04:16:17.406Z,12.63
2018-05-11T04:17:17.368Z,12.63
2018-05-11T04:18:17.464Z,12.63
2018-05-11T04:19:17.664Z,12.56
2018-05-11T04:20:17.402Z,12.56
2018-05-11T04:21:17.323Z,12.56
2018-05-11T04:22:17.354Z,12.56
2018-05-11T04:23:17.423Z,12.56
2018-05-11T04:24:17.441Z,12.5
2018-05-11T04:25:17.416Z,12.5
2018-05-11T04:26:17.410Z,12.5
2018-05-11T04:27:17.389Z,12.44
2018-05-11T04:28:17.367Z,12.44
2018-05-11T04:29:17.358Z,12.44
2018-05-11T04:30:18.008Z,12.37
2018-05-11T04:31:17.401Z,12.37
2018-05-11T04:32:17.410Z,12.44
2018-05-11T04:33:17.351Z,12.37
2018-05-11T04:34:17.411Z,12.37
2018-05-11T04:35:17.448Z,12.37
2018-05-11T04:36:17.360Z,12.37
2018-05-11T04:37:18.073Z,12.37
2018-05-11T04:38:17.350Z,12.37
2018-05-11T04:39:17.444Z,12.37
2018-05-11T04:40:17.431Z,12.37
2018-05-11T04:41:17.389Z,12.37
2018-05-11T04:42:17.412Z,12.37
2018-05-11T04:43:17.396Z,12.44
2018-05-11T04:44:17.386Z,12.44
2018-05-11T04:45:17.985Z,12.44
2018-05-11T04:46:17.364Z,12.44
2018-05-11T04:47:17.384Z,12.5
2018-05-11T04:48:17.399Z,12.5
2018-05-11T04:49:17.379Z,12.5
2018-05-11T04:50:17.785Z,12.5
2018-05-11T04:51:17.410Z,12.5
2018-05-11T04:52:17.458Z,12.5
2018-05-11T04:53:17.394Z,12.5
2018-05-11T04:54:17.514Z,12.5
2018-05-11T04:55:17.508Z,12.5
2018-05-11T04:56:17.368Z,12.5
2018-05-11T04:57:17.385Z,12.56
2018-05-11T04:58:17.389Z,12.56
2018-05-11T04:59:17.373Z,12.63
2018-05-11T05:00:17.397Z,12.56
2018-05-11T05:01:17.444Z,12.63
2018-05-11T05:02:17.654Z,12.63
2018-05-11T05:03:17.343Z,12.56
2018-05-11T05:04:17.486Z,12.63
2018-05-11T05:05:17.404Z,12.56
2018-05-11T05:06:17.382Z,12.56
2018-05-11T05:07:17.428Z,12.56
2018-05-11T05:08:17.393Z,12.56
2018-05-11T05:09:17.347Z,12.56
2018-05-11T05:10:17.378Z,12.56
2018-05-11T05:11:17.398Z,12.63
2018-05-11T05:12:18.018Z,12.63
2018-05-11T05:13:17.373Z,12.63
2018-05-11T05:14:17.536Z,12.63
2018-05-11T05:15:17.431Z,12.63
2018-05-11T05:16:17.420Z,12.69
2018-05-11T05:17:17.399Z,12.69
2018-05-11T05:18:17.432Z,12.69
2018-05-11T05:19:17.826Z,12.75
2018-05-11T05:20:18.104Z,12.75
2018-05-11T05:21:17.406Z,12.75
2018-05-11T05:22:17.420Z,12.75
2018-05-11T05:23:17.376Z,12.75
2018-05-11T05:24:17.446Z,12.81
2018-05-11T05:25:17.406Z,12.81
2018-05-11T05:26:17.375Z,12.81
2018-05-11T05:27:17.364Z,12.88
2018-05-11T05:28:17.398Z,12.88
2018-05-11T05:29:17.499Z,12.88
2018-05-11T05:30:17.442Z,12.81
2018-05-11T05:31:17.381Z,12.88
2018-05-11T05:32:17.417Z,12.94
2018-05-11T05:33:17.486Z,12.88
2018-05-11T05:34:17.367Z,12.94
2018-05-11T05:35:17.394Z,12.88
2018-05-11T05:36:17.424Z,12.88
2018-05-11T05:37:17.457Z,12.94
2018-05-11T05:38:17.386Z,12.94
2018-05-11T05:39:18.581Z,12.94
2018-05-11T05:40:17.402Z,12.94
2018-05-11T05:41:17.395Z,12.94
2018-05-11T05:42:17.725Z,13
2018-05-11T05:43:17.512Z,13
2018-05-11T05:44:17.473Z,13
2018-05-11T05:45:17.434Z,13
2018-05-11T05:46:17.431Z,13
2018-05-11T05:47:17.449Z,13.06
2018-05-11T05:48:17.435Z,13.06
2018-05-11T05:49:17.415Z,13.06
2018-05-11T05:50:17.422Z,13.13
2018-05-11T05:51:17.538Z,13.13
2018-05-11T05:52:17.418Z,13.06
2018-05-11T05:53:17.447Z,13.13
2018-05-11T05:54:17.459Z,13.13
2018-05-11T05:55:17.492Z,13.13
2018-05-11T05:56:17.406Z,13.13
2018-05-11T05:57:17.409Z,13.13
2018-05-11T05:58:17.409Z,13.19
2018-05-11T05:59:17.436Z,13.19
2018-05-11T06:00:17.471Z,13.25
2018-05-11T06:01:17.440Z,13.25
2018-05-11T06:02:17.438Z,13.25
2018-05-11T06:03:17.419Z,13.31
2018-05-11T06:04:17.484Z,13.25
2018-05-11T06:05:17.387Z,13.31
2018-05-11T06:06:17.489Z,13.25
2018-05-11T06:07:17.781Z,13.31
2018-05-11T06:08:18.016Z,13.31
2018-05-11T06:09:17.384Z,13.31
2018-05-11T06:10:17.408Z,13.38
2018-05-11T06:11:17.647Z,13.31
2018-05-11T06:12:17.438Z,13.38
2018-05-11T06:13:17.396Z,13.38
2018-05-11T06:14:17.436Z,13.38
2018-05-11T06:15:17.400Z,13.44
2018-05-11T06:16:17.408Z,13.38
2018-05-11T06:17:17.565Z,13.44
2018-05-11T06:18:17.441Z,13.44
2018-05-11T06:19:17.439Z,13.44
2018-05-11T06:20:17.417Z,13.5
2018-05-11T06:21:17.423Z,13.5
2018-05-11T06:22:17.468Z,13.5
2018-05-11T06:23:17.453Z,13.5
2018-05-11T06:24:17.469Z,13.56
2018-05-11T06:25:17.461Z,13.56
2018-05-11T06:26:17.410Z,13.62
2018-05-11T06:27:17.439Z,13.62
2018-05-11T06:28:18.302Z,13.56
2018-05-11T06:29:17.565Z,13.62
2018-05-11T06:30:17.414Z,13.62
2018-05-11T06:31:17.433Z,13.62
2018-05-11T06:32:17.507Z,13.62
2018-05-11T06:33:17.428Z,13.69
2018-05-11T06:34:17.422Z,13.69
2018-05-11T06:35:17.446Z,13.69
2018-05-11T06:36:17.427Z,13.75
2018-05-11T06:37:17.461Z,13.75
2018-05-11T06:38:17.431Z,13.75
2018-05-11T06:39:17.479Z,13.75
2018-05-11T06:40:17.423Z,13.75
2018-05-11T06:41:17.422Z,13.81
2018-05-11T06:42:17.447Z,13.81
2018-05-11T06:43:17.451Z,13.75
2018-05-11T06:44:17.421Z,13.81
2018-05-11T06:45:17.429Z,13.81
2018-05-11T06:46:17.443Z,13.81
2018-05-11T06:47:17.852Z,13.81
2018-05-11T06:48:17.422Z,13.81
2018-05-11T06:49:17.435Z,13.88
2018-05-11T06:50:17.598Z,13.81
2018-05-11T06:51:17.430Z,13.94
2018-05-11T06:52:17.492Z,13.94
2018-05-11T06:53:17.465Z,14
2018-05-11T06:54:17.464Z,14
2018-05-11T06:55:17.563Z,14
2018-05-11T06:56:17.422Z,14.13
2018-05-11T06:57:17.439Z,14.06
2018-05-11T06:58:17.399Z,14.19
2018-05-11T06:59:17.470Z,14.19
2018-05-11T07:00:17.589Z,14.19
2018-05-11T07:01:18.321Z,14.25
2018-05-11T07:02:17.441Z,14.25
2018-05-11T07:03:17.580Z,14.25
2018-05-11T07:04:17.489Z,14.31
2018-05-11T07:05:17.432Z,14.31
2018-05-11T07:06:17.478Z,14.38
2018-05-11T07:07:17.790Z,14.44
2018-05-11T07:08:17.413Z,14.5
2018-05-11T07:09:17.441Z,14.5
2018-05-11T07:10:17.435Z,14.5
2018-05-11T07:11:17.404Z,14.5
2018-05-11T07:12:17.448Z,14.5
2018-05-11T07:13:17.455Z,14.56
2018-05-11T07:14:17.443Z,14.56
2018-05-11T07:15:17.601Z,14.63
2018-05-11T07:16:17.450Z,14.63
2018-05-11T07:17:17.454Z,14.69
2018-05-11T07:18:17.460Z,14.69
2018-05-11T07:19:19.261Z,14.69
2018-05-11T07:20:17.422Z,14.69
2018-05-11T07:21:17.404Z,14.75
2018-05-11T07:22:17.486Z,14.75
2018-05-11T07:23:17.457Z,14.75
2018-05-11T07:24:17.808Z,14.75
2018-05-11T07:25:17.445Z,14.75
2018-05-11T07:26:17.732Z,14.75
2018-05-11T07:27:17.891Z,14.81
2018-05-11T07:28:17.560Z,14.81
2018-05-11T07:29:17.570Z,14.87
2018-05-11T07:30:17.441Z,14.87
2018-05-11T07:31:17.429Z,14.87
2018-05-11T07:32:17.446Z,14.87
2018-05-11T07:33:17.463Z,14.81
2018-05-11T07:34:17.441Z,14.69
2018-05-11T07:35:17.444Z,14.63
2018-05-11T07:36:17.467Z,14.69
2018-05-11T07:37:17.490Z,14.75
2018-05-11T07:38:17.486Z,14.75
2018-05-11T07:39:17.542Z,14.81
2018-05-11T07:40:17.464Z,14.81
2018-05-11T07:41:17.471Z,14.94
2018-05-11T07:42:17.464Z,14.94
2018-05-11T07:43:18.664Z,15
2018-05-11T07:44:17.483Z,15
2018-05-11T07:45:17.466Z,15.06
2018-05-11T07:46:17.465Z,15.13
2018-05-11T07:47:17.515Z,15.13
2018-05-11T07:48:18.075Z,15.25
2018-05-11T07:49:17.551Z,15.25
2018-05-11T07:50:17.461Z,15.38
2018-05-11T07:51:17.517Z,15.44
2018-05-11T07:52:17.484Z,15.44
2018-05-11T07:53:17.585Z,15.5
2018-05-11T07:54:17.522Z,15.56
2018-05-11T07:55:17.505Z,15.56
2018-05-11T07:56:17.511Z,15.5
2018-05-11T07:57:17.632Z,15.56
2018-05-11T07:58:17.488Z,15.56
2018-05-11T07:59:17.505Z,15.56
2018-05-11T08:00:17.515Z,15.5
2018-05-11T08:01:17.526Z,15.5
2018-05-11T08:02:17.556Z,15.5
2018-05-11T08:03:17.469Z,15.56
2018-05-11T08:04:17.548Z,15.56
2018-05-11T08:05:17.614Z,15.63
2018-05-11T08:06:17.499Z,15.69
2018-05-11T08:07:17.853Z,15.69
2018-05-11T08:08:17.540Z,15.75
2018-05-11T08:09:17.600Z,15.75
2018-05-11T08:10:17.476Z,15.81
2018-05-11T08:11:17.585Z,15.88
2018-05-11T08:12:17.520Z,15.69
2018-05-11T08:13:17.513Z,15.69
2018-05-11T08:14:18.526Z,15.69
2018-05-11T08:15:17.608Z,15.75
2018-05-11T08:16:17.508Z,15.81
2018-05-11T08:17:17.482Z,15.81
2018-05-11T08:18:17.493Z,15.88
2018-05-11T08:19:17.505Z,15.88
2018-05-11T08:20:17.521Z,15.94
2018-05-11T08:21:18.096Z,16
2018-05-11T08:22:17.487Z,16
2018-05-11T08:23:17.516Z,16.12
2018-05-11T08:24:17.598Z,16.12
2018-05-11T08:25:17.517Z,16.19
2018-05-11T08:26:17.612Z,16.25
2018-05-11T08:27:17.485Z,16.19
2018-05-11T08:28:17.610Z,16.19
2018-05-11T08:29:17.531Z,16.12
2018-05-11T08:30:17.523Z,16.06
2018-05-11T08:31:17.516Z,16.06
2018-05-11T08:32:17.496Z,16.06
2018-05-11T08:33:17.540Z,16.06
2018-05-11T08:34:17.495Z,16.06
2018-05-11T08:35:17.543Z,16
2018-05-11T08:36:17.532Z,16.06
2018-05-11T08:37:17.502Z,16
2018-05-11T08:38:17.799Z,16.06
2018-05-11T08:39:17.548Z,16
2018-05-11T08:40:17.529Z,16
2018-05-11T08:41:17.517Z,16.12
2018-05-11T08:42:17.639Z,16
2018-05-11T08:43:17.537Z,16.06
2018-05-11T08:44:17.543Z,16.06
2018-05-11T08:45:17.515Z,16.12
2018-05-11T08:46:18.138Z,16.25
2018-05-11T08:47:17.488Z,16.31
2018-05-11T08:48:18.335Z,16.31
2018-05-11T08:49:18.131Z,16.37
2018-05-11T08:50:17.512Z,16.37
2018-05-11T08:51:17.562Z,16.44
2018-05-11T08:52:17.484Z,16.44
2018-05-11T08:53:17.505Z,16.5
2018-05-11T08:54:17.678Z,16.56
2018-05-11T08:55:17.524Z,16.56
2018-05-11T08:56:17.525Z,16.62
2018-05-11T08:57:18.521Z,16.62
2018-05-11T08:58:17.539Z,16.69
2018-05-11T08:59:17.508Z,16.62
2018-05-11T09:00:17.574Z,16.62
2018-05-11T09:01:17.521Z,16.69
2018-05-11T09:02:17.541Z,16.69
2018-05-11T09:03:17.514Z,16.75
2018-05-11T09:04:17.512Z,16.75
2018-05-11T09:05:17.559Z,16.81
2018-05-11T09:06:17.509Z,16.81
2018-05-11T09:07:17.556Z,16.81
2018-05-11T09:08:17.975Z,16.81
2018-05-11T09:09:17.552Z,16.81
2018-05-11T09:10:17.487Z,16.75
2018-05-11T09:11:17.502Z,16.69
2018-05-11T09:12:17.510Z,16.69
2018-05-11T09:13:17.521Z,16.75
2018-05-11T09:14:17.511Z,16.75
2018-05-11T09:15:17.533Z,16.81
2018-05-11T09:16:17.502Z,16.81
2018-05-11T09:17:17.542Z,16.87
2018-05-11T09:18:17.595Z,16.87
2018-05-11T09:19:17.510Z,16.87
2018-05-11T09:20:17.502Z,16.94
2018-05-11T09:21:17.570Z,17
2018-05-11T09:22:17.528Z,17
2018-05-11T09:23:17.551Z,17.06
2018-05-11T09:24:17.559Z,17.12
2018-05-11T09:25:17.566Z,17.06
2018-05-11T09:26:17.580Z,17.12
2018-05-11T09:27:17.559Z,17.19
2018-05-11T09:28:17.597Z,17.19
2018-05-11T09:29:17.591Z,17.25
2018-05-11T09:30:17.541Z,17.31
2018-05-11T09:31:18.592Z,17.37
2018-05-11T09:32:17.511Z,17.44
2018-05-11T09:33:17.522Z,17.5
2018-05-11T09:34:17.526Z,17.62
2018-05-11T09:35:17.538Z,17.62
2018-05-11T09:36:17.551Z,17.62
2018-05-11T09:37:17.540Z,17.69
2018-05-11T09:38:17.533Z,17.69
2018-05-11T09:39:17.553Z,17.69
2018-05-11T09:40:17.624Z,17.62
2018-05-11T09:41:17.544Z,17.56
2018-05-11T09:42:17.643Z,17.56
2018-05-11T09:43:17.537Z,17.5
2018-05-11T09:44:17.534Z,17.62
2018-05-11T09:45:17.923Z,17.56
2018-05-11T09:46:17.611Z,17.62
2018-05-11T09:47:17.633Z,17.69
2018-05-11T09:48:17.524Z,17.62
2018-05-11T09:49:17.545Z,17.56
2018-05-11T09:50:17.520Z,17.44
2018-05-11T09:51:17.544Z,17.5
2018-05-11T09:52:17.855Z,17.56
2018-05-11T09:53:17.552Z,17.62
2018-05-11T09:54:17.575Z,17.69
2018-05-11T09:55:17.528Z,17.75
2018-05-11T09:56:17.559Z,17.75
2018-05-11T09:57:17.738Z,17.81
2018-05-11T09:58:17.634Z,17.81
2018-05-11T09:59:17.572Z,17.81
2018-05-11T10:00:17.546Z,17.81
2018-05-11T10:01:17.551Z,17.81
2018-05-11T10:02:17.591Z,17.69
2018-05-11T10:03:17.526Z,17.62
2018-05-11T10:04:17.540Z,17.56
2018-05-11T10:05:17.578Z,17.69
2018-05-11T10:06:17.538Z,17.62
2018-05-11T10:07:17.541Z,17.69
2018-05-11T10:08:17.561Z,17.69
2018-05-11T10:09:17.536Z,17.69
2018-05-11T10:10:17.548Z,17.69
2018-05-11T10:11:17.546Z,17.69
2018-05-11T10:12:17.641Z,17.69
2018-05-11T10:13:17.542Z,17.75
2018-05-11T10:14:17.527Z,17.75
2018-05-11T10:15:17.527Z,17.81
2018-05-11T10:16:17.517Z,17.81
2018-05-11T10:17:17.571Z,17.87
2018-05-11T10:18:17.527Z,17.94
2018-05-11T10:19:17.575Z,18
2018-05-11T10:20:17.674Z,18.06
2018-05-11T10:21:17.518Z,18.12
2018-05-11T10:22:17.516Z,18.19
2018-05-11T10:23:17.523Z,18.25
2018-05-11T10:24:17.591Z,18.31
2018-05-11T10:25:17.551Z,18.37
2018-05-11T10:26:17.594Z,18.37
2018-05-11T10:27:17.561Z,18.37
2018-05-11T10:28:17.573Z,18.37
2018-05-11T10:29:17.563Z,18.37
2018-05-11T10:30:17.542Z,18.37
2018-05-11T10:31:17.536Z,18.31
2018-05-11T10:32:17.544Z,18.31
2018-05-11T10:33:17.560Z,18.31
2018-05-11T10:34:17.517Z,18.31
2018-05-11T10:35:17.655Z,18.31
2018-05-11T10:36:17.581Z,18.31
2018-05-11T10:37:17.548Z,18.31
2018-05-11T10:38:17.537Z,18.31
2018-05-11T10:39:17.553Z,18.31
2018-05-11T10:40:17.610Z,18.25
2018-05-11T10:41:17.554Z,18.25
2018-05-11T10:42:17.531Z,18.25
2018-05-11T10:43:17.569Z,18.25
2018-05-11T10:44:17.541Z,18.31
2018-05-11T10:45:17.665Z,18.31
2018-05-11T10:46:17.867Z,18.37
2018-05-11T10:47:17.529Z,18.37
2018-05-11T10:48:17.579Z,18.37
2018-05-11T10:49:17.533Z,18.31
2018-05-11T10:50:17.606Z,18.25
2018-05-11T10:51:17.543Z,18.31
2018-05-11T10:52:17.627Z,18.25
2018-05-11T10:53:17.548Z,18.31
2018-05-11T10:54:17.605Z,18.31
2018-05-11T10:55:17.551Z,18.31
2018-05-11T10:56:17.548Z,18.37
2018-05-11T10:57:17.668Z,18.31
2018-05-11T10:58:17.599Z,18.19
2018-05-11T10:59:17.873Z,18.25
2018-05-11T11:00:17.679Z,18.25
2018-05-11T11:01:17.621Z,18.25
2018-05-11T11:02:18.121Z,18.37
2018-05-11T11:03:17.628Z,18.44
2018-05-11T11:04:17.581Z,18.5
2018-05-11T11:05:17.583Z,18.56
2018-05-11T11:06:17.645Z,18.62
2018-05-11T11:07:17.682Z,18.75
2018-05-11T11:08:17.697Z,18.87
2018-05-11T11:09:17.545Z,18.87
2018-05-11T11:10:17.693Z,18.94
2018-05-11T11:11:17.559Z,18.94
2018-05-11T11:12:17.577Z,18.94
2018-05-11T11:13:17.569Z,19
2018-05-11T11:14:17.833Z,19.06
2018-05-11T11:15:17.570Z,19.06
2018-05-11T11:16:17.621Z,19.06
2018-05-11T11:17:17.589Z,19.06
2018-05-11T11:18:17.669Z,19.06
2018-05-11T11:19:17.655Z,19.06
2018-05-11T11:20:17.581Z,19.12
2018-05-11T11:21:17.727Z,19.19
2018-05-11T11:22:17.596Z,19.19
2018-05-11T11:23:17.535Z,19.31
2018-05-11T11:24:17.565Z,19.31
2018-05-11T11:25:17.662Z,19.37
2018-05-11T11:26:18.790Z,19.5
2018-05-11T11:27:17.799Z,19.5
2018-05-11T11:28:17.674Z,19.44
2018-05-11T11:29:17.826Z,19.5
2018-05-11T11:30:17.668Z,19.56
2018-05-11T11:31:17.560Z,19.62
2018-05-11T11:32:17.715Z,19.69
2018-05-11T11:33:17.739Z,19.75
2018-05-11T11:34:21.557Z,19.81
2018-05-11T11:35:17.736Z,19.87
2018-05-11T11:36:17.565Z,19.94
2018-05-11T11:37:17.736Z,19.94
2018-05-11T11:38:17.734Z,20
2018-05-11T11:39:17.750Z,20.12
2018-05-11T11:40:17.799Z,20.19
2018-05-11T11:41:17.745Z,20.19
2018-05-11T11:42:18.171Z,20.25
2018-05-11T11:43:17.591Z,20.31
2018-05-11T11:44:17.581Z,20.37
2018-05-11T11:45:17.785Z,20.44
2018-05-11T11:46:17.706Z,20.44
2018-05-11T11:47:17.745Z,20.5
2018-05-11T11:48:17.774Z,20.5
2018-05-11T11:49:17.719Z,20.56
2018-05-11T11:50:17.735Z,20.56
2018-05-11T11:51:17.747Z,20.56
2018-05-11T11:52:17.591Z,20.56
2018-05-11T11:53:17.748Z,20.62
2018-05-11T11:54:17.767Z,20.62
2018-05-11T11:55:17.679Z,20.62
2018-05-11T11:56:17.967Z,20.62
2018-05-11T11:57:17.689Z,20.62
2018-05-11T11:58:17.805Z,20.69
2018-05-11T11:59:17.803Z,20.69
2018-05-11T12:00:17.712Z,20.62
2018-05-11T12:01:17.736Z,20.62
2018-05-11T12:02:17.591Z,20.62
2018-05-11T12:03:17.625Z,20.56
2018-05-11T12:04:17.821Z,20.5
2018-05-11T12:05:17.745Z,20.56
2018-05-11T12:06:18.793Z,20.5
2018-05-11T12:07:19.811Z,20.5
2018-05-11T12:08:17.680Z,20.56
2018-05-11T12:09:17.752Z,20.56
2018-05-11T12:10:17.650Z,20.62
2018-05-11T12:11:17.609Z,20.75
2018-05-11T12:12:17.835Z,20.81
2018-05-11T12:13:17.588Z,20.88
2018-05-11T12:14:17.804Z,20.88
2018-05-11T12:15:17.805Z,20.88
2018-05-11T12:16:17.711Z,20.81
2018-05-11T12:17:17.876Z,20.88
2018-05-11T12:18:17.774Z,20.94
2018-05-11T12:19:17.792Z,21
2018-05-11T12:20:17.844Z,21
2018-05-11T12:21:17.739Z,21.12
2018-05-11T12:22:17.596Z,21.19
2018-05-11T12:23:17.939Z,21.25
2018-05-11T12:24:17.841Z,21.19
2018-05-11T12:25:17.762Z,21.25
2018-05-11T12:26:18.344Z,21.25
2018-05-11T12:27:17.681Z,21.31
2018-05-11T12:28:17.792Z,21.37
2018-05-11T12:29:18.713Z,21.37
2018-05-11T12:30:17.696Z,21.44
2018-05-11T12:31:17.636Z,21.5
2018-05-11T12:32:17.650Z,21.5
2018-05-11T12:33:17.791Z,21.5
2018-05-11T12:34:17.634Z,21.5
2018-05-11T12:35:17.656Z,21.62
2018-05-11T12:36:17.625Z,21.56
2018-05-11T12:37:17.614Z,21.44
2018-05-11T12:38:17.622Z,21.37
2018-05-11T12:39:17.862Z,21.25
2018-05-11T12:40:17.638Z,21.25
2018-05-11T12:41:17.644Z,21.12
2018-05-11T12:42:17.634Z,21.06
2018-05-11T12:43:17.653Z,21
2018-05-11T12:44:17.671Z,21
2018-05-11T12:45:17.613Z,20.94
2018-05-11T12:46:17.621Z,20.94
2018-05-11T12:47:17.628Z,20.94
2018-05-11T12:48:17.619Z,21.06
2018-05-11T12:49:17.664Z,21.19
2018-05-11T12:50:17.687Z,21.25
2018-05-11T12:51:17.631Z,21.31
2018-05-11T12:52:17.639Z,21.44
2018-05-11T12:53:17.666Z,21.5
2018-05-11T12:54:17.789Z,21.56
2018-05-11T12:55:17.707Z,21.62
2018-05-11T12:56:17.628Z,21.69
2018-05-11T12:57:17.827Z,21.75